sensor_id;sensor_type;location;lat;lon;timestamp;P1;durP1;ratioP1;P2;durP2;ratioP2
30533;SDS011;17318;52.390;9.754;2022-11-15T00:01:36;20.10;;;9.57;;
30533;SDS011;17318;52.390;9.754;2022-11-15T00:04:03;17.35;;;9.65;;
30533;SDS011;17318;52.390;9.754;2022-11-15T00:06:29;18.75;;;10.02;;
30533;SDS011;17318;52.390;9.754;2022-11-15T00:08:57;14.98;;;8.48;;
30533;SDS011;17318;52.390;9.754;2022-11-15T00:11:24;16.08;;;8.88;;
30533;SDS011;17318;52.390;9.754;2022-11-15T00:13:49;16.75;;;9.18;;
30533;SDS011;17318;52.390;9.754;2022-11-15T00:16:15;14.85;;;8.48;;
30533;SDS011;17318;52.390;9.754;2022-11-15T00:18:41;15.05;;;8.20;;
30533;SDS011;17318;52.390;9.754;2022-11-15T00:21:10;16.92;;;9.18;;
30533;SDS011;17318;52.390;9.754;2022-11-15T00:23:37;16.92;;;8.48;;
30533;SDS011;17318;52.390;9.754;2022-11-15T00:26:03;15.40;;;9.25;;
30533;SDS011;17318;52.390;9.754;2022-11-15T00:28:29;26.67;;;12.20;;
30533;SDS011;17318;52.390;9.754;2022-11-15T00:31:01;18.95;;;9.57;;
30533;SDS011;17318;52.390;9.754;2022-11-15T00:33:31;15.20;;;8.60;;
30533;SDS011;17318;52.390;9.754;2022-11-15T00:36:05;15.43;;;8.75;;
30533;SDS011;17318;52.390;9.754;2022-11-15T00:38:34;15.15;;;8.65;;
30533;SDS011;17318;52.390;9.754;2022-11-15T00:41:02;20.95;;;9.93;;
30533;SDS011;17318;52.390;9.754;2022-11-15T00:43:28;13.70;;;8.07;;
30533;SDS011;17318;52.390;9.754;2022-11-15T00:45:54;19.23;;;8.57;;
30533;SDS011;17318;52.390;9.754;2022-11-15T00:48:20;12.73;;;7.95;;
30533;SDS011;17318;52.390;9.754;2022-11-15T00:50:46;15.68;;;8.75;;
30533;SDS011;17318;52.390;9.754;2022-11-15T00:53:13;21.73;;;10.25;;
30533;SDS011;17318;52.390;9.754;2022-11-15T00:55:38;18.88;;;9.30;;
30533;SDS011;17318;52.390;9.754;2022-11-15T00:58:04;14.63;;;8.18;;
30533;SDS011;17318;52.390;9.754;2022-11-15T01:00:30;17.90;;;8.52;;
30533;SDS011;17318;52.390;9.754;2022-11-15T01:02:55;14.73;;;8.32;;
30533;SDS011;17318;52.390;9.754;2022-11-15T01:05:21;20.45;;;10.60;;
30533;SDS011;17318;52.390;9.754;2022-11-15T01:07:50;17.60;;;9.18;;
30533;SDS011;17318;52.390;9.754;2022-11-15T01:10:20;13.88;;;8.00;;
30533;SDS011;17318;52.390;9.754;2022-11-15T01:12:46;18.00;;;8.85;;
30533;SDS011;17318;52.390;9.754;2022-11-15T01:15:12;18.00;;;8.68;;
30533;SDS011;17318;52.390;9.754;2022-11-15T01:17:38;16.00;;;8.77;;
30533;SDS011;17318;52.390;9.754;2022-11-15T01:20:04;15.77;;;7.15;;
30533;SDS011;17318;52.390;9.754;2022-11-15T01:22:30;17.95;;;9.00;;
30533;SDS011;17318;52.390;9.754;2022-11-15T01:24:55;17.80;;;9.10;;
30533;SDS011;17318;52.390;9.754;2022-11-15T01:27:21;21.42;;;9.15;;
30533;SDS011;17318;52.390;9.754;2022-11-15T01:29:47;15.45;;;8.30;;
30533;SDS011;17318;52.390;9.754;2022-11-15T01:32:13;19.75;;;9.98;;
30533;SDS011;17318;52.390;9.754;2022-11-15T01:34:38;20.42;;;8.93;;
30533;SDS011;17318;52.390;9.754;2022-11-15T01:37:04;16.15;;;7.78;;
30533;SDS011;17318;52.390;9.754;2022-11-15T01:39:29;15.13;;;8.23;;
30533;SDS011;17318;52.390;9.754;2022-11-15T01:41:55;21.17;;;11.52;;
30533;SDS011;17318;52.390;9.754;2022-11-15T01:46:59;17.05;;;9.52;;
30533;SDS011;17318;52.390;9.754;2022-11-15T01:49:33;21.70;;;11.02;;
30533;SDS011;17318;52.390;9.754;2022-11-15T01:52:01;24.92;;;10.38;;
30533;SDS011;17318;52.390;9.754;2022-11-15T01:54:29;15.25;;;9.13;;
30533;SDS011;17318;52.390;9.754;2022-11-15T01:56:56;19.58;;;9.57;;
30533;SDS011;17318;52.390;9.754;2022-11-15T01:59:29;15.55;;;8.50;;
30533;SDS011;17318;52.390;9.754;2022-11-15T02:01:55;17.98;;;10.10;;
30533;SDS011;17318;52.390;9.754;2022-11-15T02:04:28;22.15;;;10.55;;
30533;SDS011;17318;52.390;9.754;2022-11-15T02:06:56;18.73;;;9.05;;
30533;SDS011;17318;52.390;9.754;2022-11-15T02:09:22;19.70;;;9.50;;
30533;SDS011;17318;52.390;9.754;2022-11-15T02:11:48;13.20;;;7.68;;
30533;SDS011;17318;52.390;9.754;2022-11-15T02:24:56;14.50;;;9.15;;
30533;SDS011;17318;52.390;9.754;2022-11-15T02:33:26;15.45;;;8.00;;
30533;SDS011;17318;52.390;9.754;2022-11-15T02:38:45;19.55;;;8.23;;
30533;SDS011;17318;52.390;9.754;2022-11-15T02:44:05;17.52;;;8.63;;
30533;SDS011;17318;52.390;9.754;2022-11-15T02:46:40;17.92;;;7.95;;
30533;SDS011;17318;52.390;9.754;2022-11-15T02:49:30;19.17;;;8.57;;
30533;SDS011;17318;52.390;9.754;2022-11-15T02:51:58;15.02;;;9.02;;
30533;SDS011;17318;52.390;9.754;2022-11-15T02:54:24;11.57;;;7.10;;
30533;SDS011;17318;52.390;9.754;2022-11-15T02:56:54;17.77;;;8.38;;
30533;SDS011;17318;52.390;9.754;2022-11-15T02:59:43;17.08;;;8.63;;
30533;SDS011;17318;52.390;9.754;2022-11-15T03:02:24;11.20;;;6.95;;
30533;SDS011;17318;52.390;9.754;2022-11-15T03:05:04;13.40;;;6.25;;
30533;SDS011;17318;52.390;9.754;2022-11-15T03:13:21;15.07;;;6.95;;
30533;SDS011;17318;52.390;9.754;2022-11-15T03:16:02;10.00;;;6.18;;
30533;SDS011;17318;52.390;9.754;2022-11-15T03:18:41;9.57;;;6.38;;
30533;SDS011;17318;52.390;9.754;2022-11-15T03:21:12;9.65;;;5.93;;
30533;SDS011;17318;52.390;9.754;2022-11-15T03:23:40;12.48;;;6.82;;
30533;SDS011;17318;52.390;9.754;2022-11-15T03:26:08;16.63;;;7.00;;
30533;SDS011;17318;52.390;9.754;2022-11-15T03:28:38;17.52;;;6.65;;
30533;SDS011;17318;52.390;9.754;2022-11-15T03:31:08;11.73;;;6.28;;
30533;SDS011;17318;52.390;9.754;2022-11-15T03:33:55;13.47;;;6.40;;
30533;SDS011;17318;52.390;9.754;2022-11-15T03:36:23;12.18;;;7.00;;
30533;SDS011;17318;52.390;9.754;2022-11-15T03:38:52;15.23;;;6.00;;
30533;SDS011;17318;52.390;9.754;2022-11-15T03:41:25;13.30;;;6.43;;
30533;SDS011;17318;52.390;9.754;2022-11-15T03:44:04;11.68;;;6.63;;
30533;SDS011;17318;52.390;9.754;2022-11-15T03:46:40;13.10;;;6.00;;
30533;SDS011;17318;52.390;9.754;2022-11-15T03:49:26;8.93;;;5.60;;
30533;SDS011;17318;52.390;9.754;2022-11-15T03:51:56;12.18;;;5.75;;
30533;SDS011;17318;52.390;9.754;2022-11-15T03:54:23;12.43;;;5.38;;
30533;SDS011;17318;52.390;9.754;2022-11-15T03:56:49;14.32;;;6.30;;
30533;SDS011;17318;52.390;9.754;2022-11-15T03:59:15;9.30;;;5.18;;
30533;SDS011;17318;52.390;9.754;2022-11-15T04:01:40;11.52;;;5.28;;
30533;SDS011;17318;52.390;9.754;2022-11-15T04:04:06;11.18;;;6.13;;
30533;SDS011;17318;52.390;9.754;2022-11-15T04:06:31;11.10;;;5.72;;
30533;SDS011;17318;52.390;9.754;2022-11-15T04:08:57;12.57;;;5.28;;
30533;SDS011;17318;52.390;9.754;2022-11-15T04:11:23;7.68;;;4.80;;
30533;SDS011;17318;52.390;9.754;2022-11-15T04:13:49;10.80;;;5.72;;
30533;SDS011;17318;52.390;9.754;2022-11-15T04:16:17;13.35;;;5.35;;
30533;SDS011;17318;52.390;9.754;2022-11-15T04:18:43;9.65;;;4.50;;
30533;SDS011;17318;52.390;9.754;2022-11-15T04:21:09;9.45;;;5.18;;
30533;SDS011;17318;52.390;9.754;2022-11-15T04:23:53;9.13;;;5.13;;
30533;SDS011;17318;52.390;9.754;2022-11-15T04:26:37;9.07;;;4.53;;
30533;SDS011;17318;52.390;9.754;2022-11-15T04:29:03;6.63;;;4.35;;
30533;SDS011;17318;52.390;9.754;2022-11-15T04:31:47;10.90;;;4.70;;
30533;SDS011;17318;52.390;9.754;2022-11-15T04:34:13;7.88;;;4.65;;
30533;SDS011;17318;52.390;9.754;2022-11-15T04:36:38;8.52;;;4.60;;
30533;SDS011;17318;52.390;9.754;2022-11-15T04:39:22;8.88;;;4.07;;
30533;SDS011;17318;52.390;9.754;2022-11-15T04:41:48;9.43;;;4.68;;
30533;SDS011;17318;52.390;9.754;2022-11-15T04:44:14;8.82;;;4.88;;
30533;SDS011;17318;52.390;9.754;2022-11-15T04:46:41;12.13;;;5.30;;
30533;SDS011;17318;52.390;9.754;2022-11-15T04:49:07;11.18;;;4.28;;
30533;SDS011;17318;52.390;9.754;2022-11-15T04:51:33;5.47;;;3.95;;
30533;SDS011;17318;52.390;9.754;2022-11-15T04:53:59;10.82;;;4.20;;
30533;SDS011;17318;52.390;9.754;2022-11-15T04:56:24;7.10;;;4.18;;
30533;SDS011;17318;52.390;9.754;2022-11-15T04:58:50;12.00;;;4.38;;
30533;SDS011;17318;52.390;9.754;2022-11-15T05:01:16;11.93;;;4.30;;
30533;SDS011;17318;52.390;9.754;2022-11-15T05:03:42;7.20;;;3.95;;
30533;SDS011;17318;52.390;9.754;2022-11-15T05:06:27;4.85;;;3.22;;
30533;SDS011;17318;52.390;9.754;2022-11-15T05:08:53;7.72;;;4.32;;
30533;SDS011;17318;52.390;9.754;2022-11-15T05:11:19;11.25;;;3.92;;
30533;SDS011;17318;52.390;9.754;2022-11-15T05:13:45;17.10;;;8.48;;
30533;SDS011;17318;52.390;9.754;2022-11-15T05:16:11;13.05;;;5.95;;
30533;SDS011;17318;52.390;9.754;2022-11-15T05:18:37;5.65;;;3.95;;
30533;SDS011;17318;52.390;9.754;2022-11-15T05:21:13;14.15;;;7.07;;
30533;SDS011;17318;52.390;9.754;2022-11-15T05:23:39;14.50;;;7.57;;
30533;SDS011;17318;52.390;9.754;2022-11-15T05:26:06;10.05;;;4.35;;
30533;SDS011;17318;52.390;9.754;2022-11-15T05:28:33;6.67;;;3.57;;
30533;SDS011;17318;52.390;9.754;2022-11-15T05:31:00;8.35;;;3.95;;
30533;SDS011;17318;52.390;9.754;2022-11-15T05:33:26;6.80;;;3.78;;
30533;SDS011;17318;52.390;9.754;2022-11-15T05:35:57;11.80;;;4.03;;
30533;SDS011;17318;52.390;9.754;2022-11-15T05:38:29;7.07;;;3.63;;
30533;SDS011;17318;52.390;9.754;2022-11-15T05:40:55;8.50;;;3.83;;
30533;SDS011;17318;52.390;9.754;2022-11-15T05:43:21;6.00;;;3.50;;
30533;SDS011;17318;52.390;9.754;2022-11-15T05:45:47;8.35;;;3.97;;
30533;SDS011;17318;52.390;9.754;2022-11-15T05:48:13;6.70;;;3.88;;
30533;SDS011;17318;52.390;9.754;2022-11-15T05:50:40;8.73;;;4.15;;
30533;SDS011;17318;52.390;9.754;2022-11-15T05:53:09;11.68;;;5.80;;
30533;SDS011;17318;52.390;9.754;2022-11-15T05:55:37;10.05;;;5.63;;
30533;SDS011;17318;52.390;9.754;2022-11-15T05:58:04;12.00;;;6.85;;
30533;SDS011;17318;52.390;9.754;2022-11-15T06:00:30;9.63;;;4.80;;
30533;SDS011;17318;52.390;9.754;2022-11-15T06:02:56;9.63;;;3.90;;
30533;SDS011;17318;52.390;9.754;2022-11-15T06:05:21;10.18;;;4.30;;
30533;SDS011;17318;52.390;9.754;2022-11-15T06:07:47;5.25;;;3.75;;
30533;SDS011;17318;52.390;9.754;2022-11-15T06:10:12;7.50;;;3.58;;
30533;SDS011;17318;52.390;9.754;2022-11-15T06:12:38;7.88;;;3.95;;
30533;SDS011;17318;52.390;9.754;2022-11-15T06:15:04;9.38;;;4.00;;
30533;SDS011;17318;52.390;9.754;2022-11-15T06:17:30;6.40;;;3.95;;
30533;SDS011;17318;52.390;9.754;2022-11-15T06:19:55;6.47;;;3.85;;
30533;SDS011;17318;52.390;9.754;2022-11-15T06:22:21;10.25;;;4.18;;
30533;SDS011;17318;52.390;9.754;2022-11-15T06:24:47;8.00;;;3.90;;
30533;SDS011;17318;52.390;9.754;2022-11-15T06:27:13;10.60;;;4.22;;
30533;SDS011;17318;52.390;9.754;2022-11-15T06:29:38;8.25;;;4.50;;
30533;SDS011;17318;52.390;9.754;2022-11-15T06:32:04;13.82;;;4.80;;
30533;SDS011;17318;52.390;9.754;2022-11-15T06:34:30;10.30;;;4.53;;
30533;SDS011;17318;52.390;9.754;2022-11-15T06:36:55;7.82;;;4.15;;
30533;SDS011;17318;52.390;9.754;2022-11-15T06:39:21;6.47;;;4.07;;
30533;SDS011;17318;52.390;9.754;2022-11-15T06:41:47;7.15;;;3.90;;
30533;SDS011;17318;52.390;9.754;2022-11-15T06:44:12;7.85;;;4.65;;
30533;SDS011;17318;52.390;9.754;2022-11-15T06:46:38;7.18;;;3.90;;
30533;SDS011;17318;52.390;9.754;2022-11-15T06:49:04;8.43;;;4.00;;
30533;SDS011;17318;52.390;9.754;2022-11-15T06:51:29;20.80;;;9.45;;
30533;SDS011;17318;52.390;9.754;2022-11-15T06:53:55;27.05;;;14.80;;
30533;SDS011;17318;52.390;9.754;2022-11-15T06:56:20;11.63;;;5.60;;
30533;SDS011;17318;52.390;9.754;2022-11-15T06:58:46;6.63;;;3.80;;
30533;SDS011;17318;52.390;9.754;2022-11-15T07:01:12;9.95;;;4.35;;
30533;SDS011;17318;52.390;9.754;2022-11-15T07:03:39;11.02;;;4.43;;
30533;SDS011;17318;52.390;9.754;2022-11-15T07:06:06;10.23;;;4.80;;
30533;SDS011;17318;52.390;9.754;2022-11-15T07:08:33;8.40;;;4.60;;
30533;SDS011;17318;52.390;9.754;2022-11-15T07:11:00;7.07;;;4.30;;
30533;SDS011;17318;52.390;9.754;2022-11-15T07:13:28;8.60;;;4.47;;
30533;SDS011;17318;52.390;9.754;2022-11-15T07:15:58;7.50;;;3.63;;
30533;SDS011;17318;52.390;9.754;2022-11-15T07:18:27;8.02;;;3.95;;
30533;SDS011;17318;52.390;9.754;2022-11-15T07:20:53;11.80;;;4.20;;
30533;SDS011;17318;52.390;9.754;2022-11-15T07:23:18;7.63;;;3.97;;
30533;SDS011;17318;52.390;9.754;2022-11-15T07:25:44;7.88;;;3.60;;
30533;SDS011;17318;52.390;9.754;2022-11-15T07:28:09;6.40;;;3.67;;
30533;SDS011;17318;52.390;9.754;2022-11-15T07:30:35;6.15;;;4.05;;
30533;SDS011;17318;52.390;9.754;2022-11-15T07:33:01;6.60;;;3.67;;
30533;SDS011;17318;52.390;9.754;2022-11-15T07:35:27;6.35;;;3.65;;
30533;SDS011;17318;52.390;9.754;2022-11-15T07:37:58;5.75;;;3.65;;
30533;SDS011;17318;52.390;9.754;2022-11-15T07:40:26;8.80;;;4.13;;
30533;SDS011;17318;52.390;9.754;2022-11-15T07:42:58;7.97;;;3.63;;
30533;SDS011;17318;52.390;9.754;2022-11-15T07:45:28;7.57;;;3.90;;
30533;SDS011;17318;52.390;9.754;2022-11-15T07:47:54;8.95;;;4.20;;
30533;SDS011;17318;52.390;9.754;2022-11-15T07:50:22;6.03;;;3.42;;
30533;SDS011;17318;52.390;9.754;2022-11-15T07:52:58;7.78;;;3.65;;
30533;SDS011;17318;52.390;9.754;2022-11-15T07:55:25;7.75;;;3.53;;
30533;SDS011;17318;52.390;9.754;2022-11-15T07:57:53;6.60;;;3.80;;
30533;SDS011;17318;52.390;9.754;2022-11-15T08:00:24;8.90;;;4.28;;
30533;SDS011;17318;52.390;9.754;2022-11-15T08:02:50;11.23;;;4.00;;
30533;SDS011;17318;52.390;9.754;2022-11-15T08:05:16;10.23;;;3.78;;
30533;SDS011;17318;52.390;9.754;2022-11-15T08:07:41;7.40;;;4.07;;
30533;SDS011;17318;52.390;9.754;2022-11-15T08:10:07;7.22;;;3.60;;
30533;SDS011;17318;52.390;9.754;2022-11-15T08:12:33;9.90;;;3.65;;
30533;SDS011;17318;52.390;9.754;2022-11-15T08:14:59;7.20;;;4.78;;
30533;SDS011;17318;52.390;9.754;2022-11-15T08:17:25;9.43;;;3.67;;
30533;SDS011;17318;52.390;9.754;2022-11-15T08:19:51;6.93;;;3.50;;
30533;SDS011;17318;52.390;9.754;2022-11-15T08:22:17;9.25;;;4.28;;
30533;SDS011;17318;52.390;9.754;2022-11-15T08:24:43;7.70;;;3.65;;
30533;SDS011;17318;52.390;9.754;2022-11-15T08:27:09;6.63;;;3.10;;
30533;SDS011;17318;52.390;9.754;2022-11-15T08:29:41;6.82;;;3.67;;
30533;SDS011;17318;52.390;9.754;2022-11-15T08:32:08;8.30;;;3.70;;
30533;SDS011;17318;52.390;9.754;2022-11-15T08:34:34;6.53;;;3.50;;
30533;SDS011;17318;52.390;9.754;2022-11-15T08:37:00;7.15;;;3.80;;
30533;SDS011;17318;52.390;9.754;2022-11-15T08:39:25;6.43;;;3.88;;
30533;SDS011;17318;52.390;9.754;2022-11-15T08:41:51;8.18;;;3.80;;
30533;SDS011;17318;52.390;9.754;2022-11-15T08:44:16;8.88;;;4.15;;
30533;SDS011;17318;52.390;9.754;2022-11-15T08:46:45;8.30;;;3.55;;
30533;SDS011;17318;52.390;9.754;2022-11-15T08:49:10;5.57;;;3.33;;
30533;SDS011;17318;52.390;9.754;2022-11-15T08:51:36;6.30;;;3.13;;
30533;SDS011;17318;52.390;9.754;2022-11-15T08:54:02;4.55;;;3.38;;
30533;SDS011;17318;52.390;9.754;2022-11-15T08:56:27;9.10;;;3.60;;
30533;SDS011;17318;52.390;9.754;2022-11-15T08:58:53;10.93;;;3.75;;
30533;SDS011;17318;52.390;9.754;2022-11-15T09:01:19;6.95;;;3.72;;
30533;SDS011;17318;52.390;9.754;2022-11-15T09:03:46;7.00;;;3.72;;
30533;SDS011;17318;52.390;9.754;2022-11-15T09:06:12;9.52;;;3.33;;
30533;SDS011;17318;52.390;9.754;2022-11-15T09:08:38;6.90;;;3.72;;
30533;SDS011;17318;52.390;9.754;2022-11-15T09:11:04;6.07;;;3.55;;
30533;SDS011;17318;52.390;9.754;2022-11-15T09:13:31;7.43;;;3.70;;
30533;SDS011;17318;52.390;9.754;2022-11-15T09:15:58;6.60;;;3.05;;
30533;SDS011;17318;52.390;9.754;2022-11-15T09:18:24;5.90;;;3.45;;
30533;SDS011;17318;52.390;9.754;2022-11-15T09:20:50;7.75;;;3.55;;
30533;SDS011;17318;52.390;9.754;2022-11-15T09:23:16;7.10;;;2.72;;
30533;SDS011;17318;52.390;9.754;2022-11-15T09:25:42;5.63;;;2.80;;
30533;SDS011;17318;52.390;9.754;2022-11-15T09:28:07;6.20;;;2.95;;
30533;SDS011;17318;52.390;9.754;2022-11-15T09:30:33;5.18;;;3.42;;
30533;SDS011;17318;52.390;9.754;2022-11-15T09:33:05;6.10;;;3.20;;
30533;SDS011;17318;52.390;9.754;2022-11-15T09:35:35;4.57;;;2.83;;
30533;SDS011;17318;52.390;9.754;2022-11-15T09:38:01;5.88;;;3.22;;
30533;SDS011;17318;52.390;9.754;2022-11-15T09:40:27;6.65;;;3.17;;
30533;SDS011;17318;52.390;9.754;2022-11-15T09:51:16;4.30;;;2.97;;
30533;SDS011;17318;52.390;9.754;2022-11-15T09:53:51;6.05;;;3.20;;
30533;SDS011;17318;52.390;9.754;2022-11-15T09:56:32;7.68;;;3.25;;
30533;SDS011;17318;52.390;9.754;2022-11-15T10:01:48;5.28;;;3.38;;
30533;SDS011;17318;52.390;9.754;2022-11-15T10:04:19;7.47;;;3.35;;
30533;SDS011;17318;52.390;9.754;2022-11-15T10:07:34;8.20;;;3.03;;
30533;SDS011;17318;52.390;9.754;2022-11-15T10:09:47;4.93;;;3.45;;
30533;SDS011;17318;52.390;9.754;2022-11-15T10:12:13;5.20;;;2.80;;
30533;SDS011;17318;52.390;9.754;2022-11-15T10:14:40;5.20;;;2.67;;
30533;SDS011;17318;52.390;9.754;2022-11-15T10:20:00;4.78;;;2.90;;
30533;SDS011;17318;52.390;9.754;2022-11-15T10:22:46;3.60;;;2.38;;
30533;SDS011;17318;52.390;9.754;2022-11-15T10:27:50;5.85;;;2.95;;
30533;SDS011;17318;52.390;9.754;2022-11-15T10:30:35;4.40;;;2.80;;
30533;SDS011;17318;52.390;9.754;2022-11-15T10:33:37;5.53;;;2.72;;
30533;SDS011;17318;52.390;9.754;2022-11-15T10:41:15;12.02;;;4.82;;
30533;SDS011;17318;52.390;9.754;2022-11-15T10:43:43;5.68;;;2.88;;
30533;SDS011;17318;52.390;9.754;2022-11-15T10:46:19;6.28;;;2.83;;
30533;SDS011;17318;52.390;9.754;2022-11-15T10:48:47;3.85;;;2.47;;
30533;SDS011;17318;52.390;9.754;2022-11-15T10:51:24;5.38;;;2.33;;
30533;SDS011;17318;52.390;9.754;2022-11-15T10:53:57;8.00;;;2.75;;
30533;SDS011;17318;52.390;9.754;2022-11-15T10:56:25;4.60;;;1.83;;
30533;SDS011;17318;52.390;9.754;2022-11-15T10:58:55;4.83;;;2.17;;
30533;SDS011;17318;52.390;9.754;2022-11-15T11:01:23;6.88;;;1.83;;
30533;SDS011;17318;52.390;9.754;2022-11-15T11:04:00;4.43;;;2.50;;
30533;SDS011;17318;52.390;9.754;2022-11-15T11:06:27;2.15;;;1.80;;
30533;SDS011;17318;52.390;9.754;2022-11-15T11:11:46;9.25;;;2.83;;
30533;SDS011;17318;52.390;9.754;2022-11-15T11:14:24;4.50;;;2.25;;
30533;SDS011;17318;52.390;9.754;2022-11-15T11:27:42;49.92;;;28.15;;
30533;SDS011;17318;52.390;9.754;2022-11-15T11:30:17;8.18;;;3.92;;
30533;SDS011;17318;52.390;9.754;2022-11-15T11:33:08;4.53;;;2.20;;
30533;SDS011;17318;52.390;9.754;2022-11-15T11:38:34;4.75;;;2.10;;
30533;SDS011;17318;52.390;9.754;2022-11-15T11:44:01;4.57;;;2.10;;
30533;SDS011;17318;52.390;9.754;2022-11-15T11:49:45;7.13;;;2.17;;
30533;SDS011;17318;52.390;9.754;2022-11-15T11:52:41;5.30;;;2.25;;
30533;SDS011;17318;52.390;9.754;2022-11-15T11:55:20;6.60;;;3.55;;
30533;SDS011;17318;52.390;9.754;2022-11-15T12:00:32;6.50;;;2.40;;
30533;SDS011;17318;52.390;9.754;2022-11-15T12:09:00;4.35;;;2.20;;
30533;SDS011;17318;52.390;9.754;2022-11-15T12:11:32;5.28;;;2.15;;
30533;SDS011;17318;52.390;9.754;2022-11-15T12:14:18;3.15;;;2.03;;
30533;SDS011;17318;52.390;9.754;2022-11-15T12:16:51;3.50;;;1.98;;
30533;SDS011;17318;52.390;9.754;2022-11-15T12:19:17;4.20;;;2.50;;
30533;SDS011;17318;52.390;9.754;2022-11-15T12:26:51;3.70;;;2.30;;
30533;SDS011;17318;52.390;9.754;2022-11-15T12:31:54;3.88;;;2.13;;
30533;SDS011;17318;52.390;9.754;2022-11-15T12:36:53;5.57;;;2.42;;
30533;SDS011;17318;52.390;9.754;2022-11-15T12:39:19;7.03;;;2.35;;
30533;SDS011;17318;52.390;9.754;2022-11-15T12:47:04;3.40;;;2.30;;
30533;SDS011;17318;52.390;9.754;2022-11-15T12:49:47;3.90;;;2.17;;
30533;SDS011;17318;52.390;9.754;2022-11-15T12:52:14;3.60;;;1.92;;
30533;SDS011;17318;52.390;9.754;2022-11-15T13:02:24;4.55;;;2.20;;
30533;SDS011;17318;52.390;9.754;2022-11-15T13:22:41;6.82;;;2.50;;
30533;SDS011;17318;52.390;9.754;2022-11-15T13:31:00;8.95;;;1.90;;
30533;SDS011;17318;52.390;9.754;2022-11-15T13:33:47;4.00;;;2.17;;
30533;SDS011;17318;52.390;9.754;2022-11-15T13:36:14;5.45;;;2.10;;
30533;SDS011;17318;52.390;9.754;2022-11-15T13:38:43;10.82;;;2.33;;
30533;SDS011;17318;52.390;9.754;2022-11-15T13:41:20;5.38;;;2.50;;
30533;SDS011;17318;52.390;9.754;2022-11-15T13:43:51;5.63;;;2.15;;
30533;SDS011;17318;52.390;9.754;2022-11-15T13:46:19;4.50;;;2.47;;
30533;SDS011;17318;52.390;9.754;2022-11-15T13:48:45;4.90;;;2.60;;
30533;SDS011;17318;52.390;9.754;2022-11-15T13:53:46;7.95;;;2.40;;
30533;SDS011;17318;52.390;9.754;2022-11-15T13:56:18;3.72;;;2.20;;
30533;SDS011;17318;52.390;9.754;2022-11-15T13:58:45;4.68;;;2.47;;
30533;SDS011;17318;52.390;9.754;2022-11-15T14:01:16;5.38;;;2.25;;
30533;SDS011;17318;52.390;9.754;2022-11-15T14:03:49;9.65;;;2.40;;
30533;SDS011;17318;52.390;9.754;2022-11-15T14:06:24;4.20;;;2.20;;
30533;SDS011;17318;52.390;9.754;2022-11-15T14:11:34;3.28;;;2.30;;
30533;SDS011;17318;52.390;9.754;2022-11-15T14:16:40;5.13;;;2.15;;
30533;SDS011;17318;52.390;9.754;2022-11-15T14:19:11;4.78;;;2.47;;
30533;SDS011;17318;52.390;9.754;2022-11-15T14:25:33;8.10;;;3.10;;
30533;SDS011;17318;52.390;9.754;2022-11-15T14:27:40;4.57;;;2.13;;
30533;SDS011;17318;52.390;9.754;2022-11-15T14:30:17;5.63;;;2.30;;
30533;SDS011;17318;52.390;9.754;2022-11-15T14:35:21;3.70;;;1.90;;
30533;SDS011;17318;52.390;9.754;2022-11-15T14:37:48;6.85;;;2.35;;
30533;SDS011;17318;52.390;9.754;2022-11-15T14:40:18;6.32;;;1.90;;
30533;SDS011;17318;52.390;9.754;2022-11-15T14:42:46;3.65;;;2.00;;
30533;SDS011;17318;52.390;9.754;2022-11-15T14:45:14;6.28;;;2.35;;
30533;SDS011;17318;52.390;9.754;2022-11-15T14:47:42;3.10;;;1.80;;
30533;SDS011;17318;52.390;9.754;2022-11-15T14:50:12;5.38;;;2.15;;
30533;SDS011;17318;52.390;9.754;2022-11-15T14:52:42;4.30;;;2.42;;
30533;SDS011;17318;52.390;9.754;2022-11-15T14:55:27;3.20;;;2.22;;
30533;SDS011;17318;52.390;9.754;2022-11-15T14:57:56;7.43;;;2.00;;
30533;SDS011;17318;52.390;9.754;2022-11-15T15:00:22;3.85;;;1.92;;
30533;SDS011;17318;52.390;9.754;2022-11-15T15:02:50;4.38;;;2.20;;
30533;SDS011;17318;52.390;9.754;2022-11-15T15:07:45;4.22;;;1.95;;
30533;SDS011;17318;52.390;9.754;2022-11-15T15:10:11;8.98;;;2.67;;
30533;SDS011;17318;52.390;9.754;2022-11-15T15:12:37;3.25;;;2.03;;
30533;SDS011;17318;52.390;9.754;2022-11-15T15:15:03;4.32;;;2.17;;
30533;SDS011;17318;52.390;9.754;2022-11-15T15:17:45;6.03;;;2.45;;
30533;SDS011;17318;52.390;9.754;2022-11-15T15:20:11;4.43;;;2.15;;
30533;SDS011;17318;52.390;9.754;2022-11-15T15:22:37;4.00;;;2.10;;
30533;SDS011;17318;52.390;9.754;2022-11-15T15:25:08;3.80;;;1.98;;
30533;SDS011;17318;52.390;9.754;2022-11-15T15:28:00;5.20;;;2.53;;
30533;SDS011;17318;52.390;9.754;2022-11-15T15:30:27;6.03;;;2.88;;
30533;SDS011;17318;52.390;9.754;2022-11-15T15:32:54;3.45;;;2.05;;
30533;SDS011;17318;52.390;9.754;2022-11-15T15:35:20;4.32;;;1.90;;
30533;SDS011;17318;52.390;9.754;2022-11-15T15:37:47;3.63;;;2.25;;
30533;SDS011;17318;52.390;9.754;2022-11-15T15:42:47;4.18;;;2.28;;
30533;SDS011;17318;52.390;9.754;2022-11-15T15:45:14;4.30;;;2.00;;
30533;SDS011;17318;52.390;9.754;2022-11-15T15:47:40;4.03;;;1.88;;
30533;SDS011;17318;52.390;9.754;2022-11-15T15:50:23;4.63;;;2.05;;
30533;SDS011;17318;52.390;9.754;2022-11-15T15:52:51;6.90;;;2.95;;
30533;SDS011;17318;52.390;9.754;2022-11-15T15:55:27;4.45;;;2.15;;
30533;SDS011;17318;52.390;9.754;2022-11-15T15:57:53;5.28;;;2.55;;
30533;SDS011;17318;52.390;9.754;2022-11-15T16:00:20;8.38;;;2.30;;
30533;SDS011;17318;52.390;9.754;2022-11-15T16:02:48;4.43;;;2.30;;
30533;SDS011;17318;52.390;9.754;2022-11-15T16:05:14;8.73;;;2.50;;
30533;SDS011;17318;52.390;9.754;2022-11-15T16:07:40;3.35;;;1.90;;
30533;SDS011;17318;52.390;9.754;2022-11-15T16:12:52;10.38;;;6.18;;
30533;SDS011;17318;52.390;9.754;2022-11-15T16:15:19;6.88;;;3.55;;
30533;SDS011;17318;52.390;9.754;2022-11-15T16:17:48;9.15;;;2.10;;
30533;SDS011;17318;52.390;9.754;2022-11-15T16:22:54;6.50;;;2.53;;
30533;SDS011;17318;52.390;9.754;2022-11-15T16:25:20;6.03;;;2.88;;
30533;SDS011;17318;52.390;9.754;2022-11-15T16:27:46;8.27;;;3.30;;
30533;SDS011;17318;52.390;9.754;2022-11-15T16:30:12;8.10;;;3.20;;
30533;SDS011;17318;52.390;9.754;2022-11-15T16:32:40;6.03;;;2.85;;
30533;SDS011;17318;52.390;9.754;2022-11-15T16:35:07;7.63;;;3.08;;
30533;SDS011;17318;52.390;9.754;2022-11-15T16:37:42;10.05;;;3.65;;
30533;SDS011;17318;52.390;9.754;2022-11-15T16:42:42;7.72;;;4.00;;
30533;SDS011;17318;52.390;9.754;2022-11-15T16:45:10;8.77;;;4.25;;
30533;SDS011;17318;52.390;9.754;2022-11-15T16:47:38;11.18;;;4.38;;
30533;SDS011;17318;52.390;9.754;2022-11-15T16:50:04;12.18;;;4.85;;
30533;SDS011;17318;52.390;9.754;2022-11-15T16:52:30;10.95;;;5.25;;
30533;SDS011;17318;52.390;9.754;2022-11-15T16:54:56;12.85;;;4.78;;
30533;SDS011;17318;52.390;9.754;2022-11-15T16:57:21;10.45;;;4.47;;
30533;SDS011;17318;52.390;9.754;2022-11-15T16:59:47;10.38;;;5.03;;
30533;SDS011;17318;52.390;9.754;2022-11-15T17:02:13;10.10;;;4.65;;
30533;SDS011;17318;52.390;9.754;2022-11-15T17:04:39;15.38;;;7.88;;
30533;SDS011;17318;52.390;9.754;2022-11-15T17:07:04;16.42;;;8.27;;
30533;SDS011;17318;52.390;9.754;2022-11-15T17:09:30;14.75;;;5.57;;
30533;SDS011;17318;52.390;9.754;2022-11-15T17:11:57;11.35;;;5.50;;
30533;SDS011;17318;52.390;9.754;2022-11-15T17:14:22;9.70;;;5.78;;
30533;SDS011;17318;52.390;9.754;2022-11-15T17:16:48;16.80;;;7.10;;
30533;SDS011;17318;52.390;9.754;2022-11-15T17:19:15;11.38;;;5.13;;
30533;SDS011;17318;52.390;9.754;2022-11-15T17:21:43;16.20;;;7.22;;
30533;SDS011;17318;52.390;9.754;2022-11-15T17:24:09;9.93;;;6.22;;
30533;SDS011;17318;52.390;9.754;2022-11-15T17:26:36;14.43;;;5.10;;
30533;SDS011;17318;52.390;9.754;2022-11-15T17:29:02;16.58;;;5.88;;
30533;SDS011;17318;52.390;9.754;2022-11-15T17:31:31;10.27;;;4.95;;